Africa, Pennsylvania
Current Conditions -  °F | °C
As of 3:53 AM on Sunday 23 Nov 2014 (Local Time) from KHGR Reporting Station
Clear Clear  
Wind Chill:   Ceiling: Unl
Heat Index:   Visibility: 10mi
Dew Point: -7°   Wind: 7mph
Humidity: 41%   Direction: 170°S
Pressure: 30.15"   Gusts: NA
Location:  39.8035°N, 77.9346°W
Report Text: KHGR 230853Z AUTO 17006KT 10SM CLR 05/M07 A3015 RMK AO2 SLP222 T00501072 58010
Loading
Personal Weather Stations






























Interactive Weather Map New forecast layout! Learn more

10-Day Weather Forecast

Advertisements
Track Severe Weather on mobile